PWSweather.com
Personal Weather Stations
Station Observations
PICKERING
North Yorkshire, PickeringGB

North YorkshirePickeringGB

Lat: 54.2494, Lon: -0.7725

Elevation: 192

Station Type: Oregon Scientific WMR100

http://www.yorkshirewalker.co.uk/weather/

High Low Average
Temperature 44.1°F6.7°C 30.7°F-0.7°C 35.0°F1.7°C
Dew Point 37.4°F3.0°C 24.8°F-4.0°C 30.2°F-1.0°C
Winds 9.4 mph 15.1 kmh Calm Calm 2.0 mph SSW3.2 kmh SSW
Wind Gusts 18.1 mph29.1 kmh -- 4.0 mph6.4 kmh
Humidity 86% 75% 82%
Pressure 29.36 in994.2 mb 29.06 in984.1 mb -
Precipitation 0.49 in12.4 mm - -
Hour Temp Dew Point Humidity Winds Wind Gusts Pressure Precip Precip Rate Daily Precip Total
12:00 AM 37.8°F3.2°C 33.8°F1.0°C 82% 7.3 mph S11.7 kmh S 12.8 mph20.6 kmh 29.36 in994.2 mb 0.11 in2.8 mm 0.00 in0.0 mm 0.11 in2.8 mm
12:05 AM 37.8°F3.2°C 33.8°F1.0°C 82% 7.0 mph S11.3 kmh S 12.8 mph20.6 kmh 29.36 in994.2 mb 0.11 in2.8 mm 0.00 in0.0 mm 0.11 in2.8 mm
12:10 AM 37.9°F3.3°C 33.8°F1.0°C 82% 6.0 mph S9.7 kmh S 12.5 mph20.1 kmh 29.36 in994.2 mb 0.11 in2.8 mm 0.00 in0.0 mm 0.11 in2.8 mm
12:15 AM 37.9°F3.3°C 33.8°F1.0°C 82% 7.3 mph S11.7 kmh S 13.9 mph22.4 kmh 29.36 in994.2 mb 0.11 in2.8 mm 0.00 in0.0 mm 0.11 in2.8 mm
12:20 AM 37.9°F3.3°C 33.8°F1.0°C 82% 7.4 mph S11.9 kmh S 13.9 mph22.4 kmh 29.36 in994.2 mb 0.11 in2.8 mm 0.00 in0.0 mm 0.11 in2.8 mm
12:25 AM 38.1°F3.4°C 33.8°F1.0°C 82% 8.4 mph S13.5 kmh S 14.5 mph23.3 kmh 29.36 in994.2 mb 0.00 in0.0 mm 0.00 in0.0 mm 0.11 in2.8 mm
12:30 AM 38.1°F3.4°C 33.8°F1.0°C 82% 9.4 mph S15.1 kmh S 14.5 mph23.3 kmh 29.33 in993.2 mb 0.13 in3.3 mm 1.56 in39.6 mm 0.13 in3.3 mm
12:35 AM 38.1°F3.4°C 33.8°F1.0°C 82% 7.6 mph S12.2 kmh S 14.8 mph23.8 kmh 29.33 in993.2 mb 0.13 in3.3 mm 0.00 in0.0 mm 0.13 in3.3 mm
12:40 AM 38.1°F3.4°C 33.8°F1.0°C 82% 7.7 mph S12.4 kmh S 14.8 mph23.8 kmh 29.33 in993.2 mb 0.13 in3.3 mm 0.00 in0.0 mm 0.13 in3.3 mm
12:45 AM 37.9°F3.3°C 33.8°F1.0°C 82% 8.9 mph S14.3 kmh S 18.1 mph29.1 kmh 29.33 in993.2 mb 0.13 in3.3 mm 0.00 in0.0 mm 0.13 in3.3 mm
12:50 AM 37.8°F3.2°C 33.8°F1.0°C 82% 8.7 mph S14.0 kmh S 18.1 mph29.1 kmh 29.33 in993.2 mb 0.13 in3.3 mm 0.00 in0.0 mm 0.13 in3.3 mm
12:55 AM 37.8°F3.2°C 33.8°F1.0°C 83% 6.8 mph S10.9 kmh S 12.8 mph20.6 kmh 29.33 in993.2 mb 0.13 in3.3 mm 0.00 in0.0 mm 0.13 in3.3 mm
01:00 AM 37.8°F3.2°C 33.8°F1.0°C 83% 7.5 mph S12.1 kmh S 13.2 mph21.2 kmh 29.33 in993.2 mb 0.13 in3.3 mm 0.00 in0.0 mm 0.13 in3.3 mm
01:05 AM 37.8°F3.2°C 33.8°F1.0°C 83% 7.7 mph S12.4 kmh S 13.2 mph21.2 kmh 29.33 in993.2 mb 0.13 in3.3 mm 0.00 in0.0 mm 0.13 in3.3 mm
01:10 AM 37.8°F3.2°C 33.8°F1.0°C 83% 7.8 mph S12.6 kmh S 12.8 mph20.6 kmh 29.33 in993.2 mb 0.13 in3.3 mm 0.00 in0.0 mm 0.13 in3.3 mm
01:15 AM 37.8°F3.2°C 33.8°F1.0°C 83% 6.5 mph S10.5 kmh S 12.8 mph20.6 kmh 29.33 in993.2 mb 0.13 in3.3 mm 0.00 in0.0 mm 0.13 in3.3 mm
01:20 AM 37.8°F3.2°C 33.8°F1.0°C 83% 5.8 mph SSW9.3 kmh SSW 9.2 mph14.8 kmh 29.33 in993.2 mb 0.13 in3.3 mm 0.00 in0.0 mm 0.13 in3.3 mm
01:25 AM 37.8°F3.2°C 33.8°F1.0°C 83% 6.7 mph S10.8 kmh S 9.2 mph14.8 kmh 29.33 in993.2 mb 0.13 in3.3 mm 0.00 in0.0 mm 0.13 in3.3 mm
01:30 AM 37.8°F3.2°C 33.8°F1.0°C 83% 6.0 mph S9.7 kmh S 9.6 mph15.4 kmh 29.30 in992.2 mb 0.00 in0.0 mm 0.00 in0.0 mm 0.13 in3.3 mm
01:35 AM 37.8°F3.2°C 33.8°F1.0°C 83% 4.6 mph S7.4 kmh S 9.6 mph15.4 kmh 29.30 in992.2 mb 0.00 in0.0 mm 0.00 in0.0 mm 0.13 in3.3 mm
01:40 AM 37.8°F3.2°C 33.8°F1.0°C 83% 4.6 mph SSW7.4 kmh SSW 9.8 mph15.8 kmh 29.30 in992.2 mb 0.00 in0.0 mm 0.00 in0.0 mm 0.13 in3.3 mm
01:45 AM 37.8°F3.2°C 33.8°F1.0°C 83% 5.2 mph SSW8.4 kmh SSW 9.8 mph15.8 kmh 29.30 in992.2 mb 0.00 in0.0 mm 0.00 in0.0 mm 0.13 in3.3 mm
01:50 AM 37.8°F3.2°C 33.8°F1.0°C 84% 4.7 mph SSW7.6 kmh SSW 6.5 mph10.5 kmh 29.30 in992.2 mb 0.00 in0.0 mm 0.00 in0.0 mm 0.13 in3.3 mm
01:55 AM 37.6°F3.1°C 33.8°F1.0°C 84% 4.1 mph SSW6.6 kmh SSW 7.4 mph11.9 kmh 29.30 in992.2 mb 0.00 in0.0 mm 0.00 in0.0 mm 0.13 in3.3 mm
02:00 AM 37.6°F3.1°C 33.8°F1.0°C 84% 4.6 mph SSW7.4 kmh SSW 7.8 mph12.6 kmh 29.30 in992.2 mb 0.00 in0.0 mm 0.00 in0.0 mm 0.13 in3.3 mm
02:05 AM 37.6°F3.1°C 33.8°F1.0°C 84% 4.7 mph SSW7.6 kmh SSW 7.8 mph12.6 kmh 29.30 in992.2 mb 0.00 in0.0 mm 0.00 in0.0 mm 0.13 in3.3 mm
02:10 AM 37.6°F3.1°C 33.8°F1.0°C 84% 3.5 mph SW5.6 kmh SW 7.2 mph11.6 kmh 29.30 in992.2 mb 0.00 in0.0 mm 0.00 in0.0 mm 0.13 in3.3 mm
02:15 AM 37.6°F3.1°C 33.8°F1.0°C 84% 2.4 mph SW3.9 kmh SW 6.5 mph10.5 kmh 29.27 in991.2 mb 0.00 in0.0 mm 0.00 in0.0 mm 0.13 in3.3 mm
02:20 AM 37.6°F3.1°C 33.8°F1.0°C 84% 3.0 mph SW4.8 kmh SW 6.3 mph10.1 kmh 29.27 in991.2 mb 0.00 in0.0 mm 0.00 in0.0 mm 0.13 in3.3 mm
02:25 AM 37.6°F3.1°C 33.8°F1.0°C 84% 4.3 mph SW6.9 kmh SW 7.8 mph12.6 kmh 29.27 in991.2 mb 0.00 in0.0 mm 0.00 in0.0 mm 0.13 in3.3 mm
02:30 AM 37.6°F3.1°C 33.8°F1.0°C 84% 5.3 mph SSW8.5 kmh SSW 7.8 mph12.6 kmh 29.27 in991.2 mb 0.00 in0.0 mm 0.00 in0.0 mm 0.13 in3.3 mm
02:35 AM 37.6°F3.1°C 33.8°F1.0°C 84% 4.5 mph SSW7.2 kmh SSW 7.8 mph12.6 kmh 29.27 in991.2 mb 0.00 in0.0 mm 0.00 in0.0 mm 0.13 in3.3 mm
02:40 AM 37.6°F3.1°C 33.8°F1.0°C 84% 3.1 mph SW5.0 kmh SW 6.0 mph9.7 kmh 29.27 in991.2 mb 0.00 in0.0 mm 0.00 in0.0 mm 0.13 in3.3 mm
02:45 AM 37.6°F3.1°C 33.8°F1.0°C 84% 2.8 mph SW4.5 kmh SW 6.0 mph9.7 kmh 29.27 in991.2 mb 0.00 in0.0 mm 0.00 in0.0 mm 0.13 in3.3 mm
02:50 AM 37.6°F3.1°C 33.8°F1.0°C 84% 2.1 mph SW3.4 kmh SW 6.5 mph10.5 kmh 29.27 in991.2 mb 0.00 in0.0 mm 0.00 in0.0 mm 0.13 in3.3 mm
02:55 AM 37.4°F3.0°C 33.8°F1.0°C 84% 2.1 mph SW3.4 kmh SW 6.5 mph10.5 kmh 29.27 in991.2 mb 0.00 in0.0 mm 0.00 in0.0 mm 0.13 in3.3 mm
03:00 AM 37.4°F3.0°C 33.8°F1.0°C 84% 2.6 mph SW4.2 kmh SW 7.4 mph11.9 kmh 29.27 in991.2 mb 0.00 in0.0 mm 0.00 in0.0 mm 0.13 in3.3 mm
03:05 AM 37.4°F3.0°C 33.8°F1.0°C 84% 2.5 mph SW4.0 kmh SW 7.4 mph11.9 kmh 29.27 in991.2 mb 0.00 in0.0 mm 0.00 in0.0 mm 0.13 in3.3 mm
03:10 AM 37.4°F3.0°C 33.8°F1.0°C 84% 2.2 mph SW3.5 kmh SW 4.3 mph6.9 kmh 29.27 in991.2 mb 0.00 in0.0 mm 0.00 in0.0 mm 0.13 in3.3 mm
03:15 AM 37.2°F2.9°C 33.8°F1.0°C 84% 3.0 mph SW4.8 kmh SW 6.0 mph9.7 kmh 29.27 in991.2 mb 0.00 in0.0 mm 0.00 in0.0 mm 0.13 in3.3 mm
03:20 AM 37.2°F2.9°C 33.8°F1.0°C 84% 2.5 mph SW4.0 kmh SW 6.0 mph9.7 kmh 29.27 in991.2 mb 0.00 in0.0 mm 0.00 in0.0 mm 0.13 in3.3 mm
03:25 AM 37.0°F2.8°C 33.8°F1.0°C 84% 2.3 mph SW3.7 kmh SW 4.0 mph6.4 kmh 29.27 in991.2 mb 0.00 in0.0 mm 0.00 in0.0 mm 0.13 in3.3 mm
03:30 AM 37.0°F2.8°C 33.8°F1.0°C 84% 3.9 mph SW6.3 kmh SW 7.6 mph12.2 kmh 29.27 in991.2 mb 0.00 in0.0 mm 0.00 in0.0 mm 0.13 in3.3 mm
03:35 AM 37.0°F2.8°C 33.8°F1.0°C 84% 3.9 mph WSW6.3 kmh WSW 7.6 mph12.2 kmh 29.27 in991.2 mb 0.00 in0.0 mm 0.00 in0.0 mm 0.13 in3.3 mm
03:40 AM 37.0°F2.8°C 33.8°F1.0°C 84% 3.6 mph SW5.8 kmh SW 7.6 mph12.2 kmh 29.27 in991.2 mb 0.00 in0.0 mm 0.00 in0.0 mm 0.13 in3.3 mm
03:45 AM 36.9°F2.7°C 32.0°F0.0°C 83% 5.0 mph WSW8.0 kmh WSW 8.7 mph14.0 kmh 29.24 in990.2 mb 0.00 in0.0 mm 0.00 in0.0 mm 0.13 in3.3 mm
03:50 AM 36.9°F2.7°C 32.0°F0.0°C 83% 5.4 mph W8.7 kmh W 8.7 mph14.0 kmh 29.24 in990.2 mb 0.00 in0.0 mm 0.00 in0.0 mm 0.13 in3.3 mm
03:55 AM 36.7°F2.6°C 32.0°F0.0°C 83% 5.3 mph WSW8.5 kmh WSW 7.6 mph12.2 kmh 29.24 in990.2 mb 0.00 in0.0 mm 0.00 in0.0 mm 0.13 in3.3 mm
04:00 AM 36.7°F2.6°C 32.0°F0.0°C 83% 4.6 mph W7.4 kmh W 7.6 mph12.2 kmh 29.24 in990.2 mb 0.00 in0.0 mm 0.00 in0.0 mm 0.13 in3.3 mm
04:05 AM 36.5°F2.5°C 32.0°F0.0°C 83% 4.1 mph WSW6.6 kmh WSW 6.0 mph9.7 kmh 29.24 in990.2 mb 0.00 in0.0 mm 0.00 in0.0 mm 0.13 in3.3 mm
04:10 AM 36.5°F2.5°C 32.0°F0.0°C 83% 4.2 mph WSW6.8 kmh WSW 5.8 mph9.3 kmh 29.24 in990.2 mb 0.00 in0.0 mm 0.00 in0.0 mm 0.13 in3.3 mm
04:15 AM 36.3°F2.4°C 32.0°F0.0°C 83% 4.2 mph W6.8 kmh W 7.2 mph11.6 kmh 29.24 in990.2 mb 0.00 in0.0 mm 0.00 in0.0 mm 0.13 in3.3 mm
04:20 AM 36.0°F2.2°C 32.0°F0.0°C 83% 4.4 mph W7.1 kmh W 7.2 mph11.6 kmh 29.24 in990.2 mb 0.00 in0.0 mm 0.00 in0.0 mm 0.13 in3.3 mm
04:25 AM 35.8°F2.1°C 32.0°F0.0°C 83% 3.4 mph WSW5.5 kmh WSW 6.0 mph9.7 kmh 29.24 in990.2 mb 0.00 in0.0 mm 0.00 in0.0 mm 0.13 in3.3 mm
04:30 AM 35.4°F1.9°C 30.2°F-1.0°C 83% 2.2 mph WSW3.5 kmh WSW 5.6 mph9.0 kmh 29.24 in990.2 mb 0.00 in0.0 mm 0.00 in0.0 mm 0.13 in3.3 mm
04:35 AM 35.2°F1.8°C 30.2°F-1.0°C 84% 2.0 mph WSW3.2 kmh WSW 5.6 mph9.0 kmh 29.24 in990.2 mb 0.00 in0.0 mm 0.00 in0.0 mm 0.13 in3.3 mm
04:40 AM 35.1°F1.7°C 30.2°F-1.0°C 84% 1.4 mph W2.3 kmh W 2.7 mph4.3 kmh 29.24 in990.2 mb 0.00 in0.0 mm 0.00 in0.0 mm 0.13 in3.3 mm
04:45 AM 34.9°F1.6°C 30.2°F-1.0°C 84% 0.8 mph WNW1.3 kmh WNW 2.5 mph4.0 kmh 29.24 in990.2 mb 0.00 in0.0 mm 0.00 in0.0 mm 0.13 in3.3 mm
04:50 AM 34.7°F1.5°C 30.2°F-1.0°C 84% 0.5 mph W0.8 kmh W 2.5 mph4.0 kmh 29.24 in990.2 mb 0.00 in0.0 mm 0.00 in0.0 mm 0.13 in3.3 mm
04:55 AM 34.7°F1.5°C 30.2°F-1.0°C 84% 0.4 mph W0.6 kmh W 2.0 mph3.2 kmh 29.24 in990.2 mb 0.00 in0.0 mm 0.00 in0.0 mm 0.13 in3.3 mm
05:00 AM 34.7°F1.5°C 30.2°F-1.0°C 84% 0.8 mph W1.3 kmh W 2.7 mph4.3 kmh 29.24 in990.2 mb 0.00 in0.0 mm 0.00 in0.0 mm 0.13 in3.3 mm
05:05 AM 34.7°F1.5°C 30.2°F-1.0°C 84% 1.7 mph WSW2.7 kmh WSW 2.9 mph4.7 kmh 29.24 in990.2 mb 0.00 in0.0 mm 0.00 in0.0 mm 0.13 in3.3 mm
05:10 AM 34.9°F1.6°C 30.2°F-1.0°C 84% 2.6 mph WSW4.2 kmh WSW 6.0 mph9.7 kmh 29.24 in990.2 mb 0.00 in0.0 mm 0.00 in0.0 mm 0.13 in3.3 mm
05:15 AM 34.9°F1.6°C 30.2°F-1.0°C 84% 2.9 mph WSW4.7 kmh WSW 6.0 mph9.7 kmh 29.24 in990.2 mb 0.00 in0.0 mm 0.00 in0.0 mm 0.13 in3.3 mm
05:20 AM 34.9°F1.6°C 30.2°F-1.0°C 84% 3.3 mph W5.3 kmh W 5.8 mph9.3 kmh 29.24 in990.2 mb 0.00 in0.0 mm 0.00 in0.0 mm 0.13 in3.3 mm
05:25 AM 34.9°F1.6°C 30.2°F-1.0°C 84% 3.2 mph WSW5.1 kmh WSW 5.8 mph9.3 kmh 29.24 in990.2 mb 0.00 in0.0 mm 0.00 in0.0 mm 0.13 in3.3 mm
05:30 AM 34.7°F1.5°C 30.2°F-1.0°C 84% 1.8 mph WSW2.9 kmh WSW 4.3 mph6.9 kmh 29.24 in990.2 mb 0.00 in0.0 mm 0.00 in0.0 mm 0.13 in3.3 mm
05:35 AM 34.5°F1.4°C 30.2°F-1.0°C 84% 1.4 mph WSW2.3 kmh WSW 3.6 mph5.8 kmh 29.24 in990.2 mb 0.00 in0.0 mm 0.00 in0.0 mm 0.13 in3.3 mm
05:40 AM 34.5°F1.4°C 30.2°F-1.0°C 84% 1.0 mph SW1.6 kmh SW 2.2 mph3.5 kmh 29.24 in990.2 mb 0.00 in0.0 mm 0.00 in0.0 mm 0.13 in3.3 mm
05:45 AM 34.3°F1.3°C 30.2°F-1.0°C 84% 0.7 mph SW1.1 kmh SW 2.2 mph3.5 kmh 29.24 in990.2 mb 0.00 in0.0 mm 0.00 in0.0 mm 0.13 in3.3 mm
05:50 AM 34.2°F1.2°C 30.2°F-1.0°C 84% 0.4 mph SW0.6 kmh SW 1.3 mph2.1 kmh 29.24 in990.2 mb 0.00 in0.0 mm 0.00 in0.0 mm 0.13 in3.3 mm
05:55 AM 34.0°F1.1°C 30.2°F-1.0°C 84% 0.1 mph WSW0.2 kmh WSW 1.3 mph2.1 kmh 29.24 in990.2 mb 0.00 in0.0 mm 0.00 in0.0 mm 0.13 in3.3 mm
06:00 AM 33.8°F1.0°C 30.2°F-1.0°C 84% 0.2 mph SW0.3 kmh SW 1.1 mph1.8 kmh 29.24 in990.2 mb 0.00 in0.0 mm 0.00 in0.0 mm 0.13 in3.3 mm
06:05 AM 33.8°F1.0°C 30.2°F-1.0°C 84% 0.8 mph WSW1.3 kmh WSW 2.7 mph4.3 kmh 29.24 in990.2 mb 0.00 in0.0 mm 0.00 in0.0 mm 0.13 in3.3 mm
06:10 AM 33.6°F0.9°C 30.2°F-1.0°C 84% 0.9 mph SW1.4 kmh SW 2.7 mph4.3 kmh 29.24 in990.2 mb 0.00 in0.0 mm 0.00 in0.0 mm 0.13 in3.3 mm
06:15 AM 33.4°F0.8°C 30.2°F-1.0°C 84% 0.6 mph SW1.0 kmh SW 2.0 mph3.2 kmh 29.24 in990.2 mb 0.00 in0.0 mm 0.00 in0.0 mm 0.13 in3.3 mm
06:20 AM 33.3°F0.7°C 30.2°F-1.0°C 84% 0.5 mph SW0.8 kmh SW 1.1 mph1.8 kmh 29.24 in990.2 mb 0.00 in0.0 mm 0.00 in0.0 mm 0.13 in3.3 mm
06:25 AM 32.9°F0.5°C 30.2°F-1.0°C 84% 0.1 mph SSW0.2 kmh SSW 0.9 mph1.4 kmh 29.24 in990.2 mb 0.00 in0.0 mm 0.00 in0.0 mm 0.13 in3.3 mm
06:30 AM 32.4°F0.2°C 28.4°F-2.0°C 84% Calm Calm -- 29.09 in985.1 mb 0.00 in0.0 mm 0.00 in0.0 mm 0.13 in3.3 mm
06:35 AM 32.4°F0.2°C 28.4°F-2.0°C 84% Calm Calm -- 29.09 in985.1 mb 0.00 in0.0 mm 0.00 in0.0 mm 0.13 in3.3 mm
06:40 AM 32.2°F0.1°C 28.4°F-2.0°C 84% 0.1 mph SW0.2 kmh SW 1.3 mph2.1 kmh 29.09 in985.1 mb 0.00 in0.0 mm 0.00 in0.0 mm 0.13 in3.3 mm
06:45 AM 32.0°F0.0°C 26.6°F-3.0°C 84% 0.3 mph SW0.5 kmh SW 1.3 mph2.1 kmh 29.24 in990.2 mb 0.00 in0.0 mm 0.00 in0.0 mm 0.13 in3.3 mm
06:50 AM 32.0°F0.0°C 26.6°F-3.0°C 84% 0.5 mph WSW0.8 kmh WSW 1.6 mph2.6 kmh 29.24 in990.2 mb 0.00 in0.0 mm 0.00 in0.0 mm 0.13 in3.3 mm
06:55 AM 32.0°F0.0°C 26.6°F-3.0°C 84% 0.3 mph WSW0.5 kmh WSW 1.6 mph2.6 kmh 29.24 in990.2 mb 0.00 in0.0 mm 0.00 in0.0 mm 0.13 in3.3 mm
07:00 AM 31.8°F-0.1°C 26.6°F-3.0°C 84% Calm Calm -- 29.24 in990.2 mb 0.00 in0.0 mm 0.00 in0.0 mm 0.13 in3.3 mm
07:05 AM 31.6°F-0.2°C 26.6°F-3.0°C 84% Calm Calm -- 29.24 in990.2 mb 0.00 in0.0 mm 0.00 in0.0 mm 0.13 in3.3 mm
07:10 AM 31.6°F-0.2°C 26.6°F-3.0°C 84% Calm Calm -- 29.24 in990.2 mb 0.00 in0.0 mm 0.00 in0.0 mm 0.13 in3.3 mm
07:15 AM 31.5°F-0.3°C 26.6°F-3.0°C 84% Calm Calm -- 29.24 in990.2 mb 0.00 in0.0 mm 0.00 in0.0 mm 0.13 in3.3 mm
07:20 AM 31.5°F-0.3°C 26.6°F-3.0°C 85% Calm Calm -- 29.24 in990.2 mb 0.00 in0.0 mm 0.00 in0.0 mm 0.13 in3.3 mm
07:25 AM 31.5°F-0.3°C 26.6°F-3.0°C 85% 0.1 mph E0.2 kmh E 1.1 mph1.8 kmh 29.24 in990.2 mb 0.00 in0.0 mm 0.00 in0.0 mm 0.13 in3.3 mm
07:30 AM 31.3°F-0.4°C 26.6°F-3.0°C 85% 0.3 mph E0.5 kmh E 1.1 mph1.8 kmh 29.24 in990.2 mb 0.00 in0.0 mm 0.00 in0.0 mm 0.13 in3.3 mm
07:35 AM 31.3°F-0.4°C 26.6°F-3.0°C 85% 0.2 mph E0.3 kmh E 0.9 mph1.4 kmh 29.24 in990.2 mb 0.00 in0.0 mm 0.00 in0.0 mm 0.13 in3.3 mm
07:40 AM 31.3°F-0.4°C 26.6°F-3.0°C 85% 0.1 mph E0.2 kmh E 0.9 mph1.4 kmh 29.24 in990.2 mb 0.00 in0.0 mm 0.00 in0.0 mm 0.13 in3.3 mm
07:45 AM 31.1°F-0.5°C 26.6°F-3.0°C 85% 0.2 mph SSE0.3 kmh SSE 2.5 mph4.0 kmh 29.21 in989.2 mb 0.00 in0.0 mm 0.00 in0.0 mm 0.13 in3.3 mm
07:50 AM 31.3°F-0.4°C 26.6°F-3.0°C 85% 0.9 mph S1.4 kmh S 2.5 mph4.0 kmh 29.21 in989.2 mb 0.00 in0.0 mm 0.00 in0.0 mm 0.13 in3.3 mm
07:55 AM 31.1°F-0.5°C 26.6°F-3.0°C 85% 0.8 mph S1.3 kmh S 2.0 mph3.2 kmh 29.21 in989.2 mb 0.00 in0.0 mm 0.00 in0.0 mm 0.13 in3.3 mm
08:00 AM 30.9°F-0.6°C 26.6°F-3.0°C 85% 0.1 mph S0.2 kmh S 0.9 mph1.4 kmh 29.21 in989.2 mb 0.00 in0.0 mm 0.00 in0.0 mm 0.13 in3.3 mm
08:05 AM 30.7°F-0.7°C 26.6°F-3.0°C 85% Calm Calm -- 29.21 in989.2 mb 0.00 in0.0 mm 0.00 in0.0 mm 0.13 in3.3 mm
08:10 AM 30.7°F-0.7°C 26.6°F-3.0°C 85% Calm Calm -- 29.21 in989.2 mb 0.00 in0.0 mm 0.00 in0.0 mm 0.13 in3.3 mm
08:15 AM 30.7°F-0.7°C 26.6°F-3.0°C 85% 0.6 mph WSW1.0 kmh WSW 3.4 mph5.5 kmh 29.21 in989.2 mb 0.00 in0.0 mm 0.00 in0.0 mm 0.13 in3.3 mm
08:20 AM 31.3°F-0.4°C 26.6°F-3.0°C 85% 1.8 mph WSW2.9 kmh WSW 3.8 mph6.1 kmh 29.21 in989.2 mb 0.00 in0.0 mm 0.00 in0.0 mm 0.13 in3.3 mm
08:25 AM 31.8°F-0.1°C 26.6°F-3.0°C 85% 3.7 mph WSW6.0 kmh WSW 6.3 mph10.1 kmh 29.21 in989.2 mb 0.00 in0.0 mm 0.00 in0.0 mm 0.13 in3.3 mm
08:30 AM 31.8°F-0.1°C 26.6°F-3.0°C 85% 4.4 mph WSW7.1 kmh WSW 6.3 mph10.1 kmh 29.06 in984.1 mb 0.00 in0.0 mm 0.00 in0.0 mm 0.13 in3.3 mm
08:35 AM 32.0°F0.0°C 26.6°F-3.0°C 85% 3.3 mph WSW5.3 kmh WSW 6.0 mph9.7 kmh 29.06 in984.1 mb 0.00 in0.0 mm 0.00 in0.0 mm 0.13 in3.3 mm
08:40 AM 31.8°F-0.1°C 26.6°F-3.0°C 84% 1.7 mph WSW2.7 kmh WSW 3.8 mph6.1 kmh 29.06 in984.1 mb 0.00 in0.0 mm 0.00 in0.0 mm 0.13 in3.3 mm
08:45 AM 31.6°F-0.2°C 26.6°F-3.0°C 84% 0.3 mph SW0.5 kmh SW 1.6 mph2.6 kmh 29.24 in990.2 mb 0.00 in0.0 mm 0.00 in0.0 mm 0.13 in3.3 mm
08:50 AM 31.6°F-0.2°C 26.6°F-3.0°C 84% Calm Calm -- 29.24 in990.2 mb 0.00 in0.0 mm 0.00 in0.0 mm 0.13 in3.3 mm
08:55 AM 31.6°F-0.2°C 26.6°F-3.0°C 85% 0.3 mph SSW0.5 kmh SSW 2.0 mph3.2 kmh 29.24 in990.2 mb 0.00 in0.0 mm 0.00 in0.0 mm 0.13 in3.3 mm
09:00 AM 31.5°F-0.3°C 26.6°F-3.0°C 85% 0.8 mph SSW1.3 kmh SSW 2.0 mph3.2 kmh 29.24 in990.2 mb 0.00 in0.0 mm 0.00 in0.0 mm 0.13 in3.3 mm
09:05 AM 31.5°F-0.3°C 26.6°F-3.0°C 85% 1.3 mph SSW2.1 kmh SSW 2.7 mph4.3 kmh 29.24 in990.2 mb 0.00 in0.0 mm 0.00 in0.0 mm 0.13 in3.3 mm
09:10 AM 31.3°F-0.4°C 26.6°F-3.0°C 85% 1.1 mph SSW1.8 kmh SSW 2.7 mph4.3 kmh 29.24 in990.2 mb 0.00 in0.0 mm 0.00 in0.0 mm 0.13 in3.3 mm
09:15 AM 31.5°F-0.3°C 26.6°F-3.0°C 85% 0.8 mph SW1.3 kmh SW 1.3 mph2.1 kmh 29.21 in989.2 mb 0.00 in0.0 mm 0.00 in0.0 mm 0.13 in3.3 mm
09:20 AM 31.6°F-0.2°C 26.6°F-3.0°C 85% 1.1 mph WSW1.8 kmh WSW 2.5 mph4.0 kmh 29.21 in989.2 mb 0.00 in0.0 mm 0.00 in0.0 mm 0.13 in3.3 mm
09:25 AM 31.6°F-0.2°C 26.6°F-3.0°C 85% 1.4 mph WSW2.3 kmh WSW 2.7 mph4.3 kmh 29.21 in989.2 mb 0.00 in0.0 mm 0.00 in0.0 mm 0.13 in3.3 mm
09:30 AM 31.6°F-0.2°C 26.6°F-3.0°C 85% 1.4 mph SW2.3 kmh SW 2.7 mph4.3 kmh 29.21 in989.2 mb 0.00 in0.0 mm 0.00 in0.0 mm 0.13 in3.3 mm
09:35 AM 31.6°F-0.2°C 26.6°F-3.0°C 85% 1.1 mph SW1.8 kmh SW 2.2 mph3.5 kmh 29.21 in989.2 mb 0.00 in0.0 mm 0.00 in0.0 mm 0.13 in3.3 mm
09:40 AM 31.8°F-0.1°C 26.6°F-3.0°C 85% 1.1 mph SW1.8 kmh SW 2.5 mph4.0 kmh 29.21 in989.2 mb 0.00 in0.0 mm 0.00 in0.0 mm 0.13 in3.3 mm
09:45 AM 32.0°F0.0°C 26.6°F-3.0°C 85% 1.1 mph SW1.8 kmh SW 2.5 mph4.0 kmh 29.21 in989.2 mb 0.00 in0.0 mm 0.00 in0.0 mm 0.13 in3.3 mm
09:50 AM 32.0°F0.0°C 26.6°F-3.0°C 85% 0.9 mph SW1.4 kmh SW 2.5 mph4.0 kmh 29.21 in989.2 mb 0.00 in0.0 mm 0.00 in0.0 mm 0.13 in3.3 mm
09:55 AM 32.0°F0.0°C 26.6°F-3.0°C 85% 0.8 mph WSW1.3 kmh WSW 2.7 mph4.3 kmh 29.21 in989.2 mb 0.00 in0.0 mm 0.00 in0.0 mm 0.13 in3.3 mm
10:00 AM 32.0°F0.0°C 26.6°F-3.0°C 85% 0.7 mph WSW1.1 kmh WSW 2.7 mph4.3 kmh 29.21 in989.2 mb 0.00 in0.0 mm 0.00 in0.0 mm 0.13 in3.3 mm
10:05 AM 32.0°F0.0°C 26.6°F-3.0°C 85% 0.2 mph WSW0.3 kmh WSW 1.3 mph2.1 kmh 29.21 in989.2 mb 0.00 in0.0 mm 0.00 in0.0 mm 0.13 in3.3 mm
10:10 AM 32.2°F0.1°C 28.4°F-2.0°C 85% 0.4 mph W0.6 kmh W 2.5 mph4.0 kmh 29.21 in989.2 mb 0.00 in0.0 mm 0.00 in0.0 mm 0.13 in3.3 mm
10:15 AM 32.4°F0.2°C 28.4°F-2.0°C 85% 1.0 mph W1.6 kmh W 4.0 mph6.4 kmh 29.21 in989.2 mb 0.00 in0.0 mm 0.00 in0.0 mm 0.13 in3.3 mm
10:20 AM 32.4°F0.2°C 28.4°F-2.0°C 85% 0.7 mph WSW1.1 kmh WSW 4.0 mph6.4 kmh 29.21 in989.2 mb 0.00 in0.0 mm 0.00 in0.0 mm 0.13 in3.3 mm
10:25 AM 32.5°F0.3°C 30.2°F-1.0°C 85% 0.7 mph WSW1.1 kmh WSW 2.2 mph3.5 kmh 29.21 in989.2 mb 0.00 in0.0 mm 0.00 in0.0 mm 0.13 in3.3 mm
10:30 AM 32.7°F0.4°C 30.2°F-1.0°C 86% 0.7 mph WSW1.1 kmh WSW 2.2 mph3.5 kmh 29.24 in990.2 mb 0.00 in0.0 mm 0.00 in0.0 mm 0.13 in3.3 mm
10:35 AM 32.9°F0.5°C 30.2°F-1.0°C 86% 0.4 mph WNW0.6 kmh WNW 1.3 mph2.1 kmh 29.24 in990.2 mb 0.00 in0.0 mm 0.00 in0.0 mm 0.13 in3.3 mm
10:40 AM 32.9°F0.5°C 30.2°F-1.0°C 86% 0.8 mph WSW1.3 kmh WSW 2.5 mph4.0 kmh 29.24 in990.2 mb 0.00 in0.0 mm 0.00 in0.0 mm 0.13 in3.3 mm
10:55 AM 33.3°F0.7°C 30.2°F-1.0°C 85% 1.2 mph SW1.9 kmh SW 2.5 mph4.0 kmh 29.21 in989.2 mb 0.00 in0.0 mm 0.00 in0.0 mm 0.13 in3.3 mm
11:00 AM 33.4°F0.8°C 30.2°F-1.0°C 86% 1.6 mph WSW2.6 kmh WSW 3.6 mph5.8 kmh 29.21 in989.2 mb 0.00 in0.0 mm 0.00 in0.0 mm 0.13 in3.3 mm
11:05 AM 33.6°F0.9°C 30.2°F-1.0°C 86% 2.0 mph WSW3.2 kmh WSW 3.6 mph5.8 kmh 29.21 in989.2 mb 0.00 in0.0 mm 0.00 in0.0 mm 0.13 in3.3 mm
11:10 AM 34.0°F1.1°C 30.2°F-1.0°C 86% 2.3 mph WSW3.7 kmh WSW 3.4 mph5.5 kmh 29.21 in989.2 mb 0.00 in0.0 mm 0.00 in0.0 mm 0.13 in3.3 mm
11:15 AM 34.2°F1.2°C 30.2°F-1.0°C 86% 3.3 mph WSW5.3 kmh WSW 5.6 mph9.0 kmh 29.24 in990.2 mb 0.00 in0.0 mm 0.00 in0.0 mm 0.13 in3.3 mm
11:20 AM 34.2°F1.2°C 30.2°F-1.0°C 85% 2.4 mph WSW3.9 kmh WSW 5.6 mph9.0 kmh 29.24 in990.2 mb 0.00 in0.0 mm 0.00 in0.0 mm 0.13 in3.3 mm
11:25 AM 34.3°F1.3°C 30.2°F-1.0°C 85% 1.0 mph SW1.6 kmh SW 3.1 mph5.0 kmh 29.24 in990.2 mb 0.00 in0.0 mm 0.00 in0.0 mm 0.13 in3.3 mm
11:30 AM 34.5°F1.4°C 30.2°F-1.0°C 85% 1.6 mph SW2.6 kmh SW 3.6 mph5.8 kmh 29.21 in989.2 mb 0.00 in0.0 mm 0.00 in0.0 mm 0.13 in3.3 mm
11:35 AM 35.1°F1.7°C 32.0°F0.0°C 85% 2.4 mph WSW3.9 kmh WSW 3.8 mph6.1 kmh 29.21 in989.2 mb 0.00 in0.0 mm 0.00 in0.0 mm 0.13 in3.3 mm
11:40 AM 36.1°F2.3°C 33.8°F1.0°C 85% 2.4 mph WSW3.9 kmh WSW 3.8 mph6.1 kmh 29.21 in989.2 mb 0.00 in0.0 mm 0.00 in0.0 mm 0.13 in3.3 mm
11:45 AM 37.6°F3.1°C 33.8°F1.0°C 84% 2.4 mph WSW3.9 kmh WSW 3.6 mph5.8 kmh 29.21 in989.2 mb 0.00 in0.0 mm 0.00 in0.0 mm 0.13 in3.3 mm
11:50 AM 38.8°F3.8°C 33.8°F1.0°C 84% 2.3 mph WSW3.7 kmh WSW 3.6 mph5.8 kmh 29.21 in989.2 mb 0.00 in0.0 mm 0.00 in0.0 mm 0.13 in3.3 mm
11:55 AM 39.9°F4.4°C 35.6°F2.0°C 83% 2.1 mph SW3.4 kmh SW 3.8 mph6.1 kmh 29.21 in989.2 mb 0.00 in0.0 mm 0.00 in0.0 mm 0.13 in3.3 mm
12:00 PM 40.3°F4.6°C 35.6°F2.0°C 82% 3.6 mph WSW5.8 kmh WSW 6.3 mph10.1 kmh 29.21 in989.2 mb 0.00 in0.0 mm 0.00 in0.0 mm 0.13 in3.3 mm
12:05 PM 40.5°F4.7°C 35.6°F2.0°C 81% 4.3 mph WSW6.9 kmh WSW 7.4 mph11.9 kmh 29.21 in989.2 mb 0.00 in0.0 mm 0.00 in0.0 mm 0.13 in3.3 mm
12:10 PM 40.5°F4.7°C 35.6°F2.0°C 80% 4.1 mph WSW6.6 kmh WSW 7.4 mph11.9 kmh 29.21 in989.2 mb 0.00 in0.0 mm 0.00 in0.0 mm 0.13 in3.3 mm
12:15 PM 41.2°F5.1°C 35.6°F2.0°C 79% 4.3 mph WSW6.9 kmh WSW 6.3 mph10.1 kmh 29.21 in989.2 mb 0.00 in0.0 mm 0.00 in0.0 mm 0.13 in3.3 mm
12:20 PM 41.2°F5.1°C 35.6°F2.0°C 79% 4.5 mph WSW7.2 kmh WSW 10.1 mph16.3 kmh 29.21 in989.2 mb 0.00 in0.0 mm 0.00 in0.0 mm 0.13 in3.3 mm
12:25 PM 42.3°F5.7°C 35.6°F2.0°C 78% 4.9 mph WSW7.9 kmh WSW 10.1 mph16.3 kmh 29.21 in989.2 mb 0.00 in0.0 mm 0.00 in0.0 mm 0.13 in3.3 mm
12:30 PM 42.8°F6.0°C 37.4°F3.0°C 78% 4.1 mph W6.6 kmh W 7.4 mph11.9 kmh 29.21 in989.2 mb 0.00 in0.0 mm 0.00 in0.0 mm 0.13 in3.3 mm
12:35 PM 43.2°F6.2°C 37.4°F3.0°C 77% 3.5 mph W5.6 kmh W 4.9 mph7.9 kmh 29.21 in989.2 mb 0.00 in0.0 mm 0.00 in0.0 mm 0.13 in3.3 mm
12:40 PM 43.7°F6.5°C 37.4°F3.0°C 76% 3.3 mph W5.3 kmh W 4.9 mph7.9 kmh 29.21 in989.2 mb 0.00 in0.0 mm 0.00 in0.0 mm 0.13 in3.3 mm
12:45 PM 44.1°F6.7°C 37.4°F3.0°C 76% 3.1 mph WSW5.0 kmh WSW 4.9 mph7.9 kmh 29.21 in989.2 mb 0.00 in0.0 mm 0.00 in0.0 mm 0.13 in3.3 mm
12:50 PM 43.3°F6.3°C 37.4°F3.0°C 75% 2.2 mph W3.5 kmh W 4.9 mph7.9 kmh 29.21 in989.2 mb 0.00 in0.0 mm 0.00 in0.0 mm 0.13 in3.3 mm
12:55 PM 43.3°F6.3°C 37.4°F3.0°C 75% 1.8 mph W2.9 kmh W 2.7 mph4.3 kmh 29.21 in989.2 mb 0.00 in0.0 mm 0.00 in0.0 mm 0.13 in3.3 mm
01:00 PM 42.1°F5.6°C 35.6°F2.0°C 75% 2.1 mph WSW3.4 kmh WSW 3.6 mph5.8 kmh 29.21 in989.2 mb 0.00 in0.0 mm 0.00 in0.0 mm 0.13 in3.3 mm
01:05 PM 41.2°F5.1°C 33.8°F1.0°C 76% 2.6 mph WSW4.2 kmh WSW 5.4 mph8.7 kmh 29.21 in989.2 mb 0.00 in0.0 mm 0.00 in0.0 mm 0.13 in3.3 mm
01:10 PM 42.6°F5.9°C 35.6°F2.0°C 75% 2.2 mph WSW3.5 kmh WSW 5.4 mph8.7 kmh 29.21 in989.2 mb 0.00 in0.0 mm 0.00 in0.0 mm 0.13 in3.3 mm
01:15 PM 42.3°F5.7°C 35.6°F2.0°C 75% 1.3 mph W2.1 kmh W 3.1 mph5.0 kmh 29.18 in988.1 mb 0.00 in0.0 mm 0.00 in0.0 mm 0.13 in3.3 mm
01:20 PM 41.5°F5.3°C 35.6°F2.0°C 75% 1.4 mph WSW2.3 kmh WSW 3.1 mph5.0 kmh 29.18 in988.1 mb 0.00 in0.0 mm 0.00 in0.0 mm 0.13 in3.3 mm
01:25 PM 40.8°F4.9°C 33.8°F1.0°C 75% 2.0 mph SW3.2 kmh SW 4.0 mph6.4 kmh 29.18 in988.1 mb 0.00 in0.0 mm 0.00 in0.0 mm 0.13 in3.3 mm
01:30 PM 41.4°F5.2°C 33.8°F1.0°C 75% 2.3 mph SW3.7 kmh SW 4.0 mph6.4 kmh 29.18 in988.1 mb 0.00 in0.0 mm 0.00 in0.0 mm 0.13 in3.3 mm
01:35 PM 41.7°F5.4°C 35.6°F2.0°C 75% 2.1 mph SW3.4 kmh SW 3.6 mph5.8 kmh 29.18 in988.1 mb 0.00 in0.0 mm 0.00 in0.0 mm 0.13 in3.3 mm
01:40 PM 41.4°F5.2°C 33.8°F1.0°C 75% 3.1 mph SW5.0 kmh SW 5.4 mph8.7 kmh 29.18 in988.1 mb 0.00 in0.0 mm 0.00 in0.0 mm 0.13 in3.3 mm
01:45 PM 40.6°F4.8°C 33.8°F1.0°C 75% 4.3 mph SW6.9 kmh SW 5.4 mph8.7 kmh 29.18 in988.1 mb 0.00 in0.0 mm 0.00 in0.0 mm 0.13 in3.3 mm
01:50 PM 40.3°F4.6°C 33.8°F1.0°C 75% 4.5 mph WSW7.2 kmh WSW 5.4 mph8.7 kmh 29.18 in988.1 mb 0.00 in0.0 mm 0.00 in0.0 mm 0.13 in3.3 mm
01:55 PM 40.3°F4.6°C 33.8°F1.0°C 75% 4.1 mph WSW6.6 kmh WSW 5.4 mph8.7 kmh 29.18 in988.1 mb 0.00 in0.0 mm 0.00 in0.0 mm 0.13 in3.3 mm
02:00 PM 39.9°F4.4°C 33.8°F1.0°C 75% 4.1 mph WSW6.6 kmh WSW 5.8 mph9.3 kmh 29.18 in988.1 mb 0.36 in9.1 mm 0.39 in9.9 mm 0.49 in12.4 mm
02:05 PM 39.4°F4.1°C 32.0°F0.0°C 75% 4.0 mph WSW6.4 kmh WSW 5.8 mph9.3 kmh 29.18 in988.1 mb 0.36 in9.1 mm 0.00 in0.0 mm 0.49 in12.4 mm
02:10 PM 38.8°F3.8°C 32.0°F0.0°C 75% 3.7 mph WSW6.0 kmh WSW 5.8 mph9.3 kmh 29.18 in988.1 mb 0.36 in9.1 mm 0.00 in0.0 mm 0.49 in12.4 mm
02:15 PM 38.3°F3.5°C 32.0°F0.0°C 75% 2.6 mph WSW4.2 kmh WSW 4.3 mph6.9 kmh 29.18 in988.1 mb 0.36 in9.1 mm 0.00 in0.0 mm 0.49 in12.4 mm
02:20 PM 38.1°F3.4°C 32.0°F0.0°C 75% 2.0 mph WSW3.2 kmh WSW 3.6 mph5.8 kmh 29.18 in988.1 mb 0.36 in9.1 mm 0.00 in0.0 mm 0.49 in12.4 mm
02:25 PM 37.8°F3.2°C 32.0°F0.0°C 76% 2.8 mph WSW4.5 kmh WSW 3.8 mph6.1 kmh 29.18 in988.1 mb 0.36 in9.1 mm 0.00 in0.0 mm 0.49 in12.4 mm
02:30 PM 37.6°F3.1°C 30.2°F-1.0°C 76% 2.9 mph WSW4.7 kmh WSW 3.8 mph6.1 kmh 29.18 in988.1 mb 0.36 in9.1 mm 0.00 in0.0 mm 0.49 in12.4 mm
02:35 PM 37.4°F3.0°C 30.2°F-1.0°C 76% 2.9 mph WSW4.7 kmh WSW 4.3 mph6.9 kmh 29.18 in988.1 mb 0.36 in9.1 mm 0.00 in0.0 mm 0.49 in12.4 mm
02:40 PM 37.2°F2.9°C 30.2°F-1.0°C 76% 2.9 mph WSW4.7 kmh WSW 4.7 mph7.6 kmh 29.18 in988.1 mb 0.36 in9.1 mm 0.00 in0.0 mm 0.49 in12.4 mm
02:45 PM 37.0°F2.8°C 30.2°F-1.0°C 76% 2.8 mph WSW4.5 kmh WSW 4.7 mph7.6 kmh 29.18 in988.1 mb 0.36 in9.1 mm 0.00 in0.0 mm 0.49 in12.4 mm
02:50 PM 36.9°F2.7°C 30.2°F-1.0°C 76% 2.2 mph WSW3.5 kmh WSW 3.4 mph5.5 kmh 29.18 in988.1 mb 0.36 in9.1 mm 0.00 in0.0 mm 0.49 in12.4 mm
02:55 PM 36.7°F2.6°C 30.2°F-1.0°C 76% 1.7 mph WSW2.7 kmh WSW 3.4 mph5.5 kmh 29.18 in988.1 mb 0.36 in9.1 mm 0.00 in0.0 mm 0.49 in12.4 mm
03:00 PM 36.5°F2.5°C 30.2°F-1.0°C 77% 0.8 mph WSW1.3 kmh WSW 3.1 mph5.0 kmh 29.18 in988.1 mb 0.00 in0.0 mm 0.00 in0.0 mm 0.49 in12.4 mm
03:05 PM 36.3°F2.4°C 30.2°F-1.0°C 77% 0.2 mph WNW0.3 kmh WNW 1.3 mph2.1 kmh 29.18 in988.1 mb 0.00 in0.0 mm 0.00 in0.0 mm 0.49 in12.4 mm
03:10 PM 36.1°F2.3°C 30.2°F-1.0°C 77% Calm Calm -- 29.18 in988.1 mb 0.00 in0.0 mm 0.00 in0.0 mm 0.49 in12.4 mm
03:15 PM 36.1°F2.3°C 30.2°F-1.0°C 77% Calm Calm -- 29.18 in988.1 mb 0.00 in0.0 mm 0.00 in0.0 mm 0.49 in12.4 mm
03:20 PM 36.0°F2.2°C 30.2°F-1.0°C 78% Calm Calm -- 29.18 in988.1 mb 0.00 in0.0 mm 0.00 in0.0 mm 0.49 in12.4 mm
03:25 PM 35.8°F2.1°C 30.2°F-1.0°C 78% 0.1 mph WNW0.2 kmh WNW 0.9 mph1.4 kmh 29.18 in988.1 mb 0.00 in0.0 mm 0.00 in0.0 mm 0.49 in12.4 mm
03:30 PM 35.4°F1.9°C 30.2°F-1.0°C 78% 0.1 mph WNW0.2 kmh WNW 0.9 mph1.4 kmh 29.18 in988.1 mb 0.00 in0.0 mm 0.00 in0.0 mm 0.49 in12.4 mm
03:35 PM 35.2°F1.8°C 28.4°F-2.0°C 78% Calm Calm -- 29.18 in988.1 mb 0.00 in0.0 mm 0.00 in0.0 mm 0.49 in12.4 mm
03:40 PM 35.1°F1.7°C 28.4°F-2.0°C 78% 0.1 mph WSW0.2 kmh WSW 0.9 mph1.4 kmh 29.18 in988.1 mb 0.00 in0.0 mm 0.00 in0.0 mm 0.49 in12.4 mm
03:45 PM 34.9°F1.6°C 28.4°F-2.0°C 78% 0.1 mph WSW0.2 kmh WSW 0.9 mph1.4 kmh 29.18 in988.1 mb 0.00 in0.0 mm 0.00 in0.0 mm 0.49 in12.4 mm
03:50 PM 34.5°F1.4°C 28.4°F-2.0°C 78% Calm Calm -- 29.18 in988.1 mb 0.00 in0.0 mm 0.00 in0.0 mm 0.49 in12.4 mm
03:55 PM 34.5°F1.4°C 28.4°F-2.0°C 78% Calm Calm -- 29.18 in988.1 mb 0.00 in0.0 mm 0.00 in0.0 mm 0.49 in12.4 mm
04:00 PM 34.5°F1.4°C 28.4°F-2.0°C 79% Calm Calm -- 29.18 in988.1 mb 0.00 in0.0 mm 0.00 in0.0 mm 0.49 in12.4 mm
04:05 PM 34.3°F1.3°C 28.4°F-2.0°C 79% 0.1 mph S0.2 kmh S 0.9 mph1.4 kmh 29.18 in988.1 mb 0.00 in0.0 mm 0.00 in0.0 mm 0.49 in12.4 mm
04:10 PM 34.0°F1.1°C 28.4°F-2.0°C 79% 0.1 mph S0.2 kmh S 0.9 mph1.4 kmh 29.18 in988.1 mb 0.00 in0.0 mm 0.00 in0.0 mm 0.49 in12.4 mm
04:15 PM 33.8°F1.0°C 28.4°F-2.0°C 79% 0.1 mph SSW0.2 kmh SSW 0.9 mph1.4 kmh 29.18 in988.1 mb 0.00 in0.0 mm 0.00 in0.0 mm 0.49 in12.4 mm
04:20 PM 33.6°F0.9°C 28.4°F-2.0°C 79% 0.5 mph SSW0.8 kmh SSW 0.9 mph1.4 kmh 29.18 in988.1 mb 0.00 in0.0 mm 0.00 in0.0 mm 0.49 in12.4 mm
04:25 PM 33.6°F0.9°C 28.4°F-2.0°C 79% 0.6 mph SSW1.0 kmh SSW 1.3 mph2.1 kmh 29.18 in988.1 mb 0.00 in0.0 mm 0.00 in0.0 mm 0.49 in12.4 mm
04:30 PM 33.8°F1.0°C 28.4°F-2.0°C 79% 0.5 mph SSW0.8 kmh SSW 1.3 mph2.1 kmh 29.15 in987.1 mb 0.00 in0.0 mm 0.00 in0.0 mm 0.49 in12.4 mm
04:35 PM 34.0°F1.1°C 28.4°F-2.0°C 79% 0.3 mph S0.5 kmh S 0.9 mph1.4 kmh 29.15 in987.1 mb 0.00 in0.0 mm 0.00 in0.0 mm 0.49 in12.4 mm
04:40 PM 33.6°F0.9°C 28.4°F-2.0°C 79% 0.1 mph S0.2 kmh S 0.9 mph1.4 kmh 29.15 in987.1 mb 0.00 in0.0 mm 0.00 in0.0 mm 0.49 in12.4 mm
04:45 PM 33.6°F0.9°C 28.4°F-2.0°C 79% 0.4 mph SSW0.6 kmh SSW 2.5 mph4.0 kmh 29.18 in988.1 mb 0.00 in0.0 mm 0.00 in0.0 mm 0.49 in12.4 mm
04:50 PM 33.4°F0.8°C 28.4°F-2.0°C 79% 1.0 mph SSW1.6 kmh SSW 2.5 mph4.0 kmh 29.18 in988.1 mb 0.00 in0.0 mm 0.00 in0.0 mm 0.49 in12.4 mm
04:55 PM 33.6°F0.9°C 28.4°F-2.0°C 79% 0.7 mph SSW1.1 kmh SSW 2.0 mph3.2 kmh 29.18 in988.1 mb 0.00 in0.0 mm 0.00 in0.0 mm 0.49 in12.4 mm
05:00 PM 33.6°F0.9°C 28.4°F-2.0°C 80% 0.1 mph SSW0.2 kmh SSW 0.9 mph1.4 kmh 29.18 in988.1 mb 0.00 in0.0 mm 0.00 in0.0 mm 0.49 in12.4 mm
05:05 PM 33.3°F0.7°C 28.4°F-2.0°C 80% Calm Calm -- 29.18 in988.1 mb 0.00 in0.0 mm 0.00 in0.0 mm 0.49 in12.4 mm
05:10 PM 33.1°F0.6°C 28.4°F-2.0°C 79% Calm Calm -- 29.18 in988.1 mb 0.00 in0.0 mm 0.00 in0.0 mm 0.49 in12.4 mm
05:15 PM 32.9°F0.5°C 28.4°F-2.0°C 79% 0.1 mph WSW0.2 kmh WSW 0.9 mph1.4 kmh 29.18 in988.1 mb 0.00 in0.0 mm 0.00 in0.0 mm 0.49 in12.4 mm
05:20 PM 32.7°F0.4°C 26.6°F-3.0°C 79% 0.1 mph WSW0.2 kmh WSW 0.9 mph1.4 kmh 29.18 in988.1 mb 0.00 in0.0 mm 0.00 in0.0 mm 0.49 in12.4 mm
05:25 PM 32.7°F0.4°C 28.4°F-2.0°C 80% Calm Calm -- 29.18 in988.1 mb 0.00 in0.0 mm 0.00 in0.0 mm 0.49 in12.4 mm
05:30 PM 32.7°F0.4°C 28.4°F-2.0°C 80% Calm Calm -- 29.18 in988.1 mb 0.00 in0.0 mm 0.00 in0.0 mm 0.49 in12.4 mm
05:35 PM 32.7°F0.4°C 28.4°F-2.0°C 80% Calm Calm -- 29.18 in988.1 mb 0.00 in0.0 mm 0.00 in0.0 mm 0.49 in12.4 mm
05:40 PM 32.9°F0.5°C 28.4°F-2.0°C 80% Calm Calm -- 29.18 in988.1 mb 0.00 in0.0 mm 0.00 in0.0 mm 0.49 in12.4 mm
05:45 PM 33.3°F0.7°C 28.4°F-2.0°C 80% Calm Calm -- 29.15 in987.1 mb 0.00 in0.0 mm 0.00 in0.0 mm 0.49 in12.4 mm
05:50 PM 33.3°F0.7°C 28.4°F-2.0°C 80% 0.1 mph SSW0.2 kmh SSW 0.9 mph1.4 kmh 29.15 in987.1 mb 0.00 in0.0 mm 0.00 in0.0 mm 0.49 in12.4 mm
05:55 PM 33.3°F0.7°C 28.4°F-2.0°C 80% 0.1 mph SSW0.2 kmh SSW 0.9 mph1.4 kmh 29.15 in987.1 mb 0.00 in0.0 mm 0.00 in0.0 mm 0.49 in12.4 mm
06:00 PM 33.3°F0.7°C 28.4°F-2.0°C 80% Calm Calm -- 29.15 in987.1 mb 0.00 in0.0 mm 0.00 in0.0 mm 0.49 in12.4 mm
06:05 PM 33.4°F0.8°C 28.4°F-2.0°C 80% 0.1 mph SSW0.2 kmh SSW 0.9 mph1.4 kmh 29.15 in987.1 mb 0.00 in0.0 mm 0.00 in0.0 mm 0.49 in12.4 mm
06:10 PM 33.6°F0.9°C 28.4°F-2.0°C 80% 0.2 mph SSW0.3 kmh SSW 0.9 mph1.4 kmh 29.15 in987.1 mb 0.00 in0.0 mm 0.00 in0.0 mm 0.49 in12.4 mm
06:15 PM 33.4°F0.8°C 28.4°F-2.0°C 80% 0.2 mph SSW0.3 kmh SSW 0.9 mph1.4 kmh 29.15 in987.1 mb 0.00 in0.0 mm 0.00 in0.0 mm 0.49 in12.4 mm
06:20 PM 33.4°F0.8°C 28.4°F-2.0°C 80% 0.1 mph SSW0.2 kmh SSW 0.9 mph1.4 kmh 29.15 in987.1 mb 0.00 in0.0 mm 0.00 in0.0 mm 0.49 in12.4 mm
06:25 PM 33.3°F0.7°C 28.4°F-2.0°C 80% 0.1 mph SSW0.2 kmh SSW 0.9 mph1.4 kmh 29.15 in987.1 mb 0.00 in0.0 mm 0.00 in0.0 mm 0.49 in12.4 mm
06:30 PM 32.9°F0.5°C 28.4°F-2.0°C 81% 0.2 mph SSW0.3 kmh SSW 0.9 mph1.4 kmh 29.15 in987.1 mb 0.00 in0.0 mm 0.00 in0.0 mm 0.49 in12.4 mm
06:35 PM 33.3°F0.7°C 28.4°F-2.0°C 81% 0.2 mph SW0.3 kmh SW 0.9 mph1.4 kmh 29.15 in987.1 mb 0.00 in0.0 mm 0.00 in0.0 mm 0.49 in12.4 mm
06:40 PM 33.3°F0.7°C 28.4°F-2.0°C 81% 0.1 mph SW0.2 kmh SW 0.9 mph1.4 kmh 29.15 in987.1 mb 0.00 in0.0 mm 0.00 in0.0 mm 0.49 in12.4 mm
06:45 PM 33.3°F0.7°C 28.4°F-2.0°C 81% 0.4 mph WSW0.6 kmh WSW 1.3 mph2.1 kmh 29.15 in987.1 mb 0.00 in0.0 mm 0.00 in0.0 mm 0.49 in12.4 mm
06:50 PM 33.4°F0.8°C 28.4°F-2.0°C 81% 0.4 mph WSW0.6 kmh WSW 1.3 mph2.1 kmh 29.15 in987.1 mb 0.00 in0.0 mm 0.00 in0.0 mm 0.49 in12.4 mm
06:55 PM 33.4°F0.8°C 28.4°F-2.0°C 81% Calm Calm -- 29.15 in987.1 mb 0.00 in0.0 mm 0.00 in0.0 mm 0.49 in12.4 mm
07:00 PM 33.4°F0.8°C 28.4°F-2.0°C 81% 0.1 mph SSW0.2 kmh SSW 1.1 mph1.8 kmh 29.15 in987.1 mb 0.00 in0.0 mm 0.00 in0.0 mm 0.49 in12.4 mm
07:05 PM 33.4°F0.8°C 28.4°F-2.0°C 81% 0.2 mph SSW0.3 kmh SSW 1.1 mph1.8 kmh 29.15 in987.1 mb 0.00 in0.0 mm 0.00 in0.0 mm 0.49 in12.4 mm
07:10 PM 33.3°F0.7°C 28.4°F-2.0°C 81% 0.2 mph SW0.3 kmh SW 1.1 mph1.8 kmh 29.15 in987.1 mb 0.00 in0.0 mm 0.00 in0.0 mm 0.49 in12.4 mm
07:15 PM 33.3°F0.7°C 28.4°F-2.0°C 81% 0.1 mph WSW0.2 kmh WSW 0.9 mph1.4 kmh 29.15 in987.1 mb 0.00 in0.0 mm 0.00 in0.0 mm 0.49 in12.4 mm
07:20 PM 33.4°F0.8°C 28.4°F-2.0°C 81% 0.1 mph SSW0.2 kmh SSW 0.9 mph1.4 kmh 29.15 in987.1 mb 0.00 in0.0 mm 0.00 in0.0 mm 0.49 in12.4 mm
07:25 PM 33.4°F0.8°C 28.4°F-2.0°C 81% 0.4 mph SW0.6 kmh SW 1.1 mph1.8 kmh 29.15 in987.1 mb 0.00 in0.0 mm 0.00 in0.0 mm 0.49 in12.4 mm
07:30 PM 33.4°F0.8°C 28.4°F-2.0°C 81% 0.8 mph WSW1.3 kmh WSW 2.2 mph3.5 kmh 29.15 in987.1 mb 0.00 in0.0 mm 0.00 in0.0 mm 0.49 in12.4 mm
07:35 PM 33.3°F0.7°C 28.4°F-2.0°C 82% 0.7 mph WSW1.1 kmh WSW 2.2 mph3.5 kmh 29.15 in987.1 mb 0.00 in0.0 mm 0.00 in0.0 mm 0.49 in12.4 mm
07:40 PM 33.4°F0.8°C 30.2°F-1.0°C 82% 0.3 mph WSW0.5 kmh WSW 1.3 mph2.1 kmh 29.15 in987.1 mb 0.00 in0.0 mm 0.00 in0.0 mm 0.49 in12.4 mm
07:45 PM 33.4°F0.8°C 28.4°F-2.0°C 81% 1.1 mph WSW1.8 kmh WSW 2.9 mph4.7 kmh 29.15 in987.1 mb 0.00 in0.0 mm 0.00 in0.0 mm 0.49 in12.4 mm
07:50 PM 33.4°F0.8°C 28.4°F-2.0°C 81% 1.4 mph WSW2.3 kmh WSW 2.9 mph4.7 kmh 29.15 in987.1 mb 0.00 in0.0 mm 0.00 in0.0 mm 0.49 in12.4 mm
07:55 PM 33.3°F0.7°C 28.4°F-2.0°C 81% 0.9 mph WSW1.4 kmh WSW 2.2 mph3.5 kmh 29.15 in987.1 mb 0.00 in0.0 mm 0.00 in0.0 mm 0.49 in12.4 mm
08:00 PM 33.3°F0.7°C 28.4°F-2.0°C 81% 0.8 mph WSW1.3 kmh WSW 2.2 mph3.5 kmh 29.15 in987.1 mb 0.00 in0.0 mm 0.00 in0.0 mm 0.49 in12.4 mm
08:05 PM 33.3°F0.7°C 28.4°F-2.0°C 82% 0.3 mph WSW0.5 kmh WSW 1.3 mph2.1 kmh 29.15 in987.1 mb 0.00 in0.0 mm 0.00 in0.0 mm 0.49 in12.4 mm
08:10 PM 33.1°F0.6°C 28.4°F-2.0°C 82% Calm Calm -- 29.15 in987.1 mb 0.00 in0.0 mm 0.00 in0.0 mm 0.49 in12.4 mm
08:15 PM 33.1°F0.6°C 28.4°F-2.0°C 82% 0.2 mph WSW0.3 kmh WSW 1.3 mph2.1 kmh 29.15 in987.1 mb 0.00 in0.0 mm 0.00 in0.0 mm 0.49 in12.4 mm
08:20 PM 33.3°F0.7°C 28.4°F-2.0°C 82% 0.6 mph SW1.0 kmh SW 1.3 mph2.1 kmh 29.15 in987.1 mb 0.00 in0.0 mm 0.00 in0.0 mm 0.49 in12.4 mm
08:25 PM 33.3°F0.7°C 28.4°F-2.0°C 82% 1.1 mph SW1.8 kmh SW 2.2 mph3.5 kmh 29.15 in987.1 mb 0.00 in0.0 mm 0.00 in0.0 mm 0.49 in12.4 mm
08:30 PM 33.3°F0.7°C 28.4°F-2.0°C 82% 0.9 mph WSW1.4 kmh WSW 2.2 mph3.5 kmh 29.15 in987.1 mb 0.00 in0.0 mm 0.00 in0.0 mm 0.49 in12.4 mm
08:35 PM 33.1°F0.6°C 28.4°F-2.0°C 82% 0.8 mph WSW1.3 kmh WSW 2.9 mph4.7 kmh 29.15 in987.1 mb 0.00 in0.0 mm 0.00 in0.0 mm 0.49 in12.4 mm
08:40 PM 33.1°F0.6°C 28.4°F-2.0°C 82% 1.3 mph WSW2.1 kmh WSW 2.9 mph4.7 kmh 29.15 in987.1 mb 0.00 in0.0 mm 0.00 in0.0 mm 0.49 in12.4 mm
08:45 PM 33.1°F0.6°C 28.4°F-2.0°C 82% 0.9 mph WSW1.4 kmh WSW 2.7 mph4.3 kmh 29.15 in987.1 mb 0.00 in0.0 mm 0.00 in0.0 mm 0.49 in12.4 mm
08:50 PM 33.1°F0.6°C 28.4°F-2.0°C 82% 0.2 mph WSW0.3 kmh WSW 1.3 mph2.1 kmh 29.15 in987.1 mb 0.00 in0.0 mm 0.00 in0.0 mm 0.49 in12.4 mm
08:55 PM 32.9°F0.5°C 28.4°F-2.0°C 82% Calm Calm -- 29.15 in987.1 mb 0.00 in0.0 mm 0.00 in0.0 mm 0.49 in12.4 mm
09:00 PM 32.9°F0.5°C 28.4°F-2.0°C 82% Calm Calm -- 29.15 in987.1 mb 0.00 in0.0 mm 0.00 in0.0 mm 0.49 in12.4 mm
09:05 PM 32.7°F0.4°C 28.4°F-2.0°C 82% Calm Calm -- 29.15 in987.1 mb 0.00 in0.0 mm 0.00 in0.0 mm 0.49 in12.4 mm
09:10 PM 32.7°F0.4°C 28.4°F-2.0°C 82% Calm Calm -- 29.06 in984.1 mb 0.00 in0.0 mm 0.00 in0.0 mm 0.49 in12.4 mm
09:15 PM 32.7°F0.4°C 28.4°F-2.0°C 82% Calm Calm -- 29.06 in984.1 mb 0.00 in0.0 mm 0.00 in0.0 mm 0.49 in12.4 mm
09:20 PM 32.7°F0.4°C 28.4°F-2.0°C 82% Calm Calm -- 29.15 in987.1 mb 0.00 in0.0 mm 0.00 in0.0 mm 0.49 in12.4 mm
09:25 PM 32.7°F0.4°C 28.4°F-2.0°C 82% Calm Calm -- 29.15 in987.1 mb 0.00 in0.0 mm 0.00 in0.0 mm 0.49 in12.4 mm
09:30 PM 32.7°F0.4°C 28.4°F-2.0°C 82% Calm Calm -- 29.15 in987.1 mb 0.00 in0.0 mm 0.00 in0.0 mm 0.49 in12.4 mm
09:35 PM 32.7°F0.4°C 28.4°F-2.0°C 83% Calm Calm -- 29.15 in987.1 mb 0.00 in0.0 mm 0.00 in0.0 mm 0.49 in12.4 mm
09:40 PM 32.7°F0.4°C 28.4°F-2.0°C 83% Calm Calm -- 29.15 in987.1 mb 0.00 in0.0 mm 0.00 in0.0 mm 0.49 in12.4 mm
09:45 PM 32.9°F0.5°C 28.4°F-2.0°C 83% Calm Calm -- 29.15 in987.1 mb 0.00 in0.0 mm 0.00 in0.0 mm 0.49 in12.4 mm
09:50 PM 32.9°F0.5°C 28.4°F-2.0°C 83% 0.2 mph NE0.3 kmh NE 0.9 mph1.4 kmh 29.15 in987.1 mb 0.00 in0.0 mm 0.00 in0.0 mm 0.49 in12.4 mm
09:55 PM 32.9°F0.5°C 28.4°F-2.0°C 83% 0.3 mph NE0.5 kmh NE 1.3 mph2.1 kmh 29.15 in987.1 mb 0.00 in0.0 mm 0.00 in0.0 mm 0.49 in12.4 mm
10:00 PM 32.7°F0.4°C 28.4°F-2.0°C 83% 0.3 mph NNE0.5 kmh NNE 1.3 mph2.1 kmh 29.15 in987.1 mb 0.00 in0.0 mm 0.00 in0.0 mm 0.49 in12.4 mm
10:05 PM 32.7°F0.4°C 28.4°F-2.0°C 83% 0.3 mph N0.5 kmh N 0.9 mph1.4 kmh 29.15 in987.1 mb 0.00 in0.0 mm 0.00 in0.0 mm 0.49 in12.4 mm
11:10 PM 32.0°F0.0°C 26.6°F-3.0°C 83% 0.1 mph W0.2 kmh W 0.9 mph1.4 kmh 29.15 in987.1 mb 0.00 in0.0 mm 0.00 in0.0 mm 0.49 in12.4 mm
11:15 PM 31.8°F-0.1°C 26.6°F-3.0°C 82% 0.1 mph W0.2 kmh W 0.9 mph1.4 kmh 29.15 in987.1 mb 0.00 in0.0 mm 0.00 in0.0 mm 0.49 in12.4 mm
11:20 PM 31.8°F-0.1°C 26.6°F-3.0°C 83% 0.1 mph NW0.2 kmh NW 0.9 mph1.4 kmh 29.15 in987.1 mb 0.00 in0.0 mm 0.00 in0.0 mm 0.49 in12.4 mm
11:25 PM 31.8°F-0.1°C 26.6°F-3.0°C 82% 0.1 mph NW0.2 kmh NW 0.9 mph1.4 kmh 29.15 in987.1 mb 0.00 in0.0 mm 0.00 in0.0 mm 0.49 in12.4 mm
11:30 PM 31.8°F-0.1°C 26.6°F-3.0°C 83% 0.1 mph NW0.2 kmh NW 0.9 mph1.4 kmh 29.15 in987.1 mb 0.00 in0.0 mm 0.00 in0.0 mm 0.49 in12.4 mm
11:35 PM 31.6°F-0.2°C 26.6°F-3.0°C 83% 0.1 mph NW0.2 kmh NW 0.9 mph1.4 kmh 29.15 in987.1 mb 0.00 in0.0 mm 0.00 in0.0 mm 0.49 in12.4 mm
11:40 PM 31.5°F-0.3°C 24.8°F-4.0°C 82% 0.3 mph NW0.5 kmh NW 1.1 mph1.8 kmh 29.15 in987.1 mb 0.00 in0.0 mm 0.00 in0.0 mm 0.49 in12.4 mm
11:45 PM 31.5°F-0.3°C 24.8°F-4.0°C 82% 0.2 mph NW0.3 kmh NW 1.1 mph1.8 kmh 29.15 in987.1 mb 0.00 in0.0 mm 0.00 in0.0 mm 0.49 in12.4 mm
11:50 PM 31.3°F-0.4°C 24.8°F-4.0°C 82% Calm Calm -- 29.15 in987.1 mb 0.00 in0.0 mm 0.00 in0.0 mm 0.49 in12.4 mm
11:55 PM 31.5°F-0.3°C 24.8°F-4.0°C 83% Calm Calm -- 29.15 in987.1 mb 0.00 in0.0 mm 0.00 in0.0 mm 0.49 in12.4 mm